sensor_id;sensor_type;location;lat;lon;timestamp;pressure;altitude;pressure_sealevel;temperature;humidity
51178;BME280;37243;49.814;8.652;2022-11-20T00:01:24;99819.06;;;25.57;37.63
51178;BME280;37243;49.814;8.652;2022-11-20T00:03:53;99816.66;;;25.56;38.52
51178;BME280;37243;49.814;8.652;2022-11-20T00:06:26;99817.78;;;25.55;38.40
51178;BME280;37243;49.814;8.652;2022-11-20T00:08:56;99816.22;;;25.54;38.59
51178;BME280;37243;49.814;8.652;2022-11-20T00:11:27;99811.84;;;25.53;37.68
51178;BME280;37243;49.814;8.652;2022-11-20T00:13:57;99808.63;;;25.51;38.07
51178;BME280;37243;49.814;8.652;2022-11-20T00:16:28;99807.03;;;25.50;38.49
51178;BME280;37243;49.814;8.652;2022-11-20T00:18:57;99804.63;;;25.48;37.75
51178;BME280;37243;49.814;8.652;2022-11-20T00:21:29;99796.69;;;25.47;37.98
51178;BME280;37243;49.814;8.652;2022-11-20T00:23:58;99802.97;;;25.47;38.13
51178;BME280;37243;49.814;8.652;2022-11-20T00:26:27;99809.94;;;25.45;38.39
51178;BME280;37243;49.814;8.652;2022-11-20T00:28:57;99806.72;;;25.42;38.44
51178;BME280;37243;49.814;8.652;2022-11-20T00:31:26;99809.47;;;25.42;38.57
51178;BME280;37243;49.814;8.652;2022-11-20T00:33:55;99800.75;;;25.40;38.03
51178;BME280;37243;49.814;8.652;2022-11-20T00:36:28;99802.69;;;25.40;38.44
51178;BME280;37243;49.814;8.652;2022-11-20T00:38:58;99813.69;;;25.40;37.80
51178;BME280;37243;49.814;8.652;2022-11-20T00:41:27;99814.03;;;25.38;38.02
51178;BME280;37243;49.814;8.652;2022-11-20T00:43:56;99807.25;;;25.36;38.01
51178;BME280;37243;49.814;8.652;2022-11-20T00:46:26;99809.19;;;25.35;37.74
51178;BME280;37243;49.814;8.652;2022-11-20T00:48:55;99802.91;;;25.35;38.54
51178;BME280;37243;49.814;8.652;2022-11-20T00:51:25;99793.03;;;25.34;38.59
51178;BME280;37243;49.814;8.652;2022-11-20T00:53:57;99789.53;;;25.33;38.22
51178;BME280;37243;49.814;8.652;2022-11-20T00:56:27;99792.59;;;25.32;37.93
51178;BME280;37243;49.814;8.652;2022-11-20T00:58:58;99785.16;;;25.32;37.92
51178;BME280;37243;49.814;8.652;2022-11-20T01:01:27;99788.25;;;25.31;38.39
51178;BME280;37243;49.814;8.652;2022-11-20T01:03:58;99795.69;;;25.30;37.78
51178;BME280;37243;49.814;8.652;2022-11-20T01:06:28;99792.94;;;25.30;38.49
51178;BME280;37243;49.814;8.652;2022-11-20T01:09:01;99791.66;;;25.28;38.26
51178;BME280;37243;49.814;8.652;2022-11-20T01:11:31;99788.13;;;25.27;37.90
51178;BME280;37243;49.814;8.652;2022-11-20T01:14:01;99802.66;;;25.28;37.73
51178;BME280;37243;49.814;8.652;2022-11-20T01:16:31;99785.69;;;25.26;38.40
51178;BME280;37243;49.814;8.652;2022-11-20T01:19:01;99785.69;;;25.26;38.22
51178;BME280;37243;49.814;8.652;2022-11-20T01:21:31;99793.13;;;25.25;38.20
51178;BME280;37243;49.814;8.652;2022-11-20T01:24:04;99797.81;;;25.25;37.90
51178;BME280;37243;49.814;8.652;2022-11-20T01:26:34;99797.00;;;25.24;37.83
51178;BME280;37243;49.814;8.652;2022-11-20T01:29:03;99796.19;;;25.24;38.53
51178;BME280;37243;49.814;8.652;2022-11-20T01:31:33;99784.41;;;25.23;38.62
51178;BME280;37243;49.814;8.652;2022-11-20T01:34:03;99807.50;;;25.22;38.04
51178;BME280;37243;49.814;8.652;2022-11-20T01:36:33;99808.31;;;25.23;38.64
51178;BME280;37243;49.814;8.652;2022-11-20T01:39:07;99801.22;;;25.22;38.04
51178;BME280;37243;49.814;8.652;2022-11-20T01:41:35;99795.75;;;25.22;37.85
51178;BME280;37243;49.814;8.652;2022-11-20T01:44:18;99799.63;;;25.21;38.59
51178;BME280;37243;49.814;8.652;2022-11-20T01:46:53;99790.56;;;25.20;38.36
51178;BME280;37243;49.814;8.652;2022-11-20T01:49:24;99799.63;;;25.21;38.04
51178;BME280;37243;49.814;8.652;2022-11-20T01:51:56;99787.81;;;25.20;38.27
51178;BME280;37243;49.814;8.652;2022-11-20T01:54:31;99790.09;;;25.18;38.14
51178;BME280;37243;49.814;8.652;2022-11-20T01:57:04;99784.63;;;25.18;38.47
51178;BME280;37243;49.814;8.652;2022-11-20T01:59:38;99783.50;;;25.19;38.15
51178;BME280;37243;49.814;8.652;2022-11-20T02:02:09;99783.81;;;25.18;38.55
51178;BME280;37243;49.814;8.652;2022-11-20T02:04:37;99783.00;;;25.17;38.65
51178;BME280;37243;49.814;8.652;2022-11-20T02:07:06;99776.38;;;25.18;38.51
51178;BME280;37243;49.814;8.652;2022-11-20T02:09:37;99777.50;;;25.17;37.80
51178;BME280;37243;49.814;8.652;2022-11-20T02:12:06;99770.44;;;25.16;37.88
51178;BME280;37243;49.814;8.652;2022-11-20T02:14:54;99764.94;;;25.16;38.24
51178;BME280;37243;49.814;8.652;2022-11-20T02:17:20;99767.69;;;25.16;37.83
51178;BME280;37243;49.814;8.652;2022-11-20T02:19:49;99764.94;;;25.16;38.10
51178;BME280;37243;49.814;8.652;2022-11-20T02:22:20;99771.56;;;25.15;37.97
51178;BME280;37243;49.814;8.652;2022-11-20T02:24:51;99775.13;;;25.16;38.49
51178;BME280;37243;49.814;8.652;2022-11-20T02:27:20;99770.75;;;25.15;38.27
51178;BME280;37243;49.814;8.652;2022-11-20T02:29:53;99779.78;;;25.15;38.58
51178;BME280;37243;49.814;8.652;2022-11-20T02:32:24;99775.13;;;25.16;38.65
51178;BME280;37243;49.814;8.652;2022-11-20T02:34:53;99769.94;;;25.14;38.54
51178;BME280;37243;49.814;8.652;2022-11-20T02:37:22;99776.25;;;25.15;38.53
51178;BME280;37243;49.814;8.652;2022-11-20T02:39:53;99769.94;;;25.14;38.25
51178;BME280;37243;49.814;8.652;2022-11-20T02:42:21;99775.44;;;25.14;38.03
51178;BME280;37243;49.814;8.652;2022-11-20T02:44:50;99771.09;;;25.13;38.47
51178;BME280;37243;49.814;8.652;2022-11-20T02:47:18;99765.63;;;25.13;37.91
51178;BME280;37243;49.814;8.652;2022-11-20T02:49:46;99758.97;;;25.14;37.99
51178;BME280;37243;49.814;8.652;2022-11-20T02:52:14;99765.63;;;25.13;37.93
51178;BME280;37243;49.814;8.652;2022-11-20T02:54:43;99765.63;;;25.13;37.91
51178;BME280;37243;49.814;8.652;2022-11-20T02:57:13;99764.00;;;25.12;38.61
51178;BME280;37243;49.814;8.652;2022-11-20T02:59:42;99764.31;;;25.11;38.04
51178;BME280;37243;49.814;8.652;2022-11-20T03:02:10;99763.19;;;25.12;38.11
51178;BME280;37243;49.814;8.652;2022-11-20T03:04:38;99763.19;;;25.12;38.45
51178;BME280;37243;49.814;8.652;2022-11-20T03:07:07;99761.56;;;25.11;38.56
51178;BME280;37243;49.814;8.652;2022-11-20T03:09:36;99767.88;;;25.11;38.29
51178;BME280;37243;49.814;8.652;2022-11-20T03:12:05;99778.84;;;25.11;38.43
51178;BME280;37243;49.814;8.652;2022-11-20T03:14:36;99765.94;;;25.12;38.10
51178;BME280;37243;49.814;8.652;2022-11-20T03:17:04;99774.97;;;25.12;37.68
51178;BME280;37243;49.814;8.652;2022-11-20T03:19:33;99767.88;;;25.11;38.38
51178;BME280;37243;49.814;8.652;2022-11-20T03:22:02;99772.53;;;25.11;37.82
51178;BME280;37243;49.814;8.652;2022-11-20T03:24:30;99777.72;;;25.12;38.38
51178;BME280;37243;49.814;8.652;2022-11-20T03:26:58;99777.72;;;25.12;37.76
51178;BME280;37243;49.814;8.652;2022-11-20T03:29:27;99770.28;;;25.13;37.69
51178;BME280;37243;49.814;8.652;2022-11-20T03:31:58;99769.03;;;25.10;37.70
51178;BME280;37243;49.814;8.652;2022-11-20T03:34:26;99762.38;;;25.11;37.62
51178;BME280;37243;49.814;8.652;2022-11-20T03:36:54;99764.31;;;25.11;38.48
51178;BME280;37243;49.814;8.652;2022-11-20T03:39:22;99764.66;;;25.09;38.35
51178;BME280;37243;49.814;8.652;2022-11-20T03:41:51;99763.84;;;25.09;38.44
51178;BME280;37243;49.814;8.652;2022-11-20T03:44:21;99765.78;;;25.08;38.34
51178;BME280;37243;49.814;8.652;2022-11-20T03:46:49;99766.59;;;25.09;38.33
51178;BME280;37243;49.814;8.652;2022-11-20T03:49:20;99761.09;;;25.09;38.08
51178;BME280;37243;49.814;8.652;2022-11-20T03:51:48;99760.28;;;25.08;37.59
51178;BME280;37243;49.814;8.652;2022-11-20T03:54:16;99767.75;;;25.08;37.63
51178;BME280;37243;49.814;8.652;2022-11-20T03:56:45;99781.13;;;25.09;38.02
51178;BME280;37243;49.814;8.652;2022-11-20T03:59:13;99774.03;;;25.08;38.39
51178;BME280;37243;49.814;8.652;2022-11-20T04:01:41;99760.28;;;25.08;37.98
51178;BME280;37243;49.814;8.652;2022-11-20T04:04:10;99761.09;;;25.09;37.92
51178;BME280;37243;49.814;8.652;2022-11-20T04:06:40;99765.78;;;25.08;37.71
51178;BME280;37243;49.814;8.652;2022-11-20T04:09:09;99759.50;;;25.08;38.32
51178;BME280;37243;49.814;8.652;2022-11-20T04:11:39;99760.66;;;25.07;38.24
51178;BME280;37243;49.814;8.652;2022-11-20T04:14:13;99766.94;;;25.07;37.80
51178;BME280;37243;49.814;8.652;2022-11-20T04:16:42;99770.81;;;25.06;38.04
51178;BME280;37243;49.814;8.652;2022-11-20T04:19:12;99765.00;;;25.08;37.56
51178;BME280;37243;49.814;8.652;2022-11-20T04:21:43;99759.03;;;25.06;37.74
51178;BME280;37243;49.814;8.652;2022-11-20T04:24:12;99751.59;;;25.06;38.35
51178;BME280;37243;49.814;8.652;2022-11-20T04:26:40;99749.97;;;25.05;37.68
51178;BME280;37243;49.814;8.652;2022-11-20T04:29:10;99744.50;;;25.05;38.37
51178;BME280;37243;49.814;8.652;2022-11-20T04:31:38;99742.56;;;25.06;37.97
51178;BME280;37243;49.814;8.652;2022-11-20T04:34:07;99736.25;;;25.05;37.76
51178;BME280;37243;49.814;8.652;2022-11-20T04:36:35;99728.84;;;25.06;37.98
51178;BME280;37243;49.814;8.652;2022-11-20T04:39:06;99730.78;;;25.05;37.70
51178;BME280;37243;49.814;8.652;2022-11-20T04:41:35;99731.94;;;25.04;38.08
51178;BME280;37243;49.814;8.652;2022-11-20T04:44:05;99740.16;;;25.04;37.90
51178;BME280;37243;49.814;8.652;2022-11-20T04:46:36;99734.69;;;25.04;38.00
51178;BME280;37243;49.814;8.652;2022-11-20T04:49:05;99736.25;;;25.05;38.26
51178;BME280;37243;49.814;8.652;2022-11-20T04:51:34;99739.81;;;25.06;38.05
51178;BME280;37243;49.814;8.652;2022-11-20T04:54:02;99729.19;;;25.04;37.85
51178;BME280;37243;49.814;8.652;2022-11-20T04:56:33;99726.09;;;25.06;38.40
51178;BME280;37243;49.814;8.652;2022-11-20T04:59:02;99732.41;;;25.06;38.39
51178;BME280;37243;49.814;8.652;2022-11-20T05:01:30;99732.41;;;25.06;38.07
51178;BME280;37243;49.814;8.652;2022-11-20T05:03:58;99739.00;;;25.05;38.46
51178;BME280;37243;49.814;8.652;2022-11-20T05:06:27;99729.19;;;25.04;37.90
51178;BME280;37243;49.814;8.652;2022-11-20T05:08:55;99730.78;;;25.05;38.30
51178;BME280;37243;49.814;8.652;2022-11-20T05:11:23;99734.69;;;25.04;38.47
51178;BME280;37243;49.814;8.652;2022-11-20T05:13:58;99740.16;;;25.04;38.11
51178;BME280;37243;49.814;8.652;2022-11-20T05:16:26;99741.28;;;25.03;38.10
51178;BME280;37243;49.814;8.652;2022-11-20T05:18:55;99736.59;;;25.04;38.30
51178;BME280;37243;49.814;8.652;2022-11-20T05:21:23;99727.56;;;25.03;38.13
51178;BME280;37243;49.814;8.652;2022-11-20T05:23:52;99733.88;;;25.04;38.06
51178;BME280;37243;49.814;8.652;2022-11-20T05:26:23;99730.31;;;25.03;38.18
51178;BME280;37243;49.814;8.652;2022-11-20T05:28:51;99727.56;;;25.03;38.17
51178;BME280;37243;49.814;8.652;2022-11-20T05:31:24;99724.00;;;25.03;38.28
51178;BME280;37243;49.814;8.652;2022-11-20T05:33:52;99722.88;;;25.04;38.41
51178;BME280;37243;49.814;8.652;2022-11-20T05:36:21;99733.06;;;25.03;38.12
51178;BME280;37243;49.814;8.652;2022-11-20T05:38:49;99729.50;;;25.03;37.97
51178;BME280;37243;49.814;8.652;2022-11-20T05:41:18;99726.75;;;25.03;38.42
51178;BME280;37243;49.814;8.652;2022-11-20T05:43:49;99729.50;;;25.03;38.05
51178;BME280;37243;49.814;8.652;2022-11-20T05:46:19;99730.31;;;25.03;38.33
51178;BME280;37243;49.814;8.652;2022-11-20T05:48:50;99719.34;;;25.03;38.49
51178;BME280;37243;49.814;8.652;2022-11-20T05:51:19;99730.31;;;25.03;38.30
51178;BME280;37243;49.814;8.652;2022-11-20T05:53:47;99726.75;;;25.03;38.36
51178;BME280;37243;49.814;8.652;2022-11-20T05:56:17;99713.03;;;25.03;38.75
51178;BME280;37243;49.814;8.652;2022-11-20T05:58:47;99715.78;;;25.03;38.23
51178;BME280;37243;49.814;8.652;2022-11-20T06:01:17;99710.28;;;25.03;38.29
51178;BME280;37243;49.814;8.652;2022-11-20T06:03:46;99709.50;;;25.02;38.96
51178;BME280;37243;49.814;8.652;2022-11-20T06:06:19;99706.75;;;25.02;38.32
51178;BME280;37243;49.814;8.652;2022-11-20T06:08:48;99711.09;;;25.03;38.69
51178;BME280;37243;49.814;8.652;2022-11-20T06:11:17;99723.22;;;25.02;38.23
51178;BME280;37243;49.814;8.652;2022-11-20T06:13:46;99712.22;;;25.02;38.28
51178;BME280;37243;49.814;8.652;2022-11-20T06:16:16;99704.00;;;25.02;38.62
51178;BME280;37243;49.814;8.652;2022-11-20T06:18:45;99705.97;;;25.02;38.93
51178;BME280;37243;49.814;8.652;2022-11-20T06:21:18;99713.38;;;25.01;38.27
51178;BME280;37243;49.814;8.652;2022-11-20T06:23:47;99708.72;;;25.02;38.82
51178;BME280;37243;49.814;8.652;2022-11-20T06:26:18;99712.22;;;25.02;38.25
51178;BME280;37243;49.814;8.652;2022-11-20T06:28:46;99724.38;;;25.01;38.12
51178;BME280;37243;49.814;8.652;2022-11-20T06:31:16;99725.94;;;25.02;38.79
51178;BME280;37243;49.814;8.652;2022-11-20T06:33:45;99724.38;;;25.01;38.72
51178;BME280;37243;49.814;8.652;2022-11-20T06:36:15;99724.38;;;25.01;37.96
51178;BME280;37243;49.814;8.652;2022-11-20T06:38:46;99720.47;;;25.02;38.69
51178;BME280;37243;49.814;8.652;2022-11-20T06:41:17;99714.97;;;25.02;38.36
51178;BME280;37243;49.814;8.652;2022-11-20T06:43:45;99718.53;;;25.03;38.50
51178;BME280;37243;49.814;8.652;2022-11-20T06:46:15;99725.19;;;25.02;38.01
51178;BME280;37243;49.814;8.652;2022-11-20T06:48:45;99724.38;;;25.01;38.58
51178;BME280;37243;49.814;8.652;2022-11-20T06:51:13;99724.38;;;25.01;38.58
51178;BME280;37243;49.814;8.652;2022-11-20T06:53:42;99714.97;;;25.02;38.10
51178;BME280;37243;49.814;8.652;2022-11-20T06:56:13;99715.31;;;25.01;38.59
51178;BME280;37243;49.814;8.652;2022-11-20T06:58:41;99720.81;;;25.01;38.57
51178;BME280;37243;49.814;8.652;2022-11-20T07:01:10;99719.69;;;25.02;38.71
51178;BME280;37243;49.814;8.652;2022-11-20T07:03:39;99721.94;;;25.00;38.54
51178;BME280;37243;49.814;8.652;2022-11-20T07:06:08;99727.13;;;25.01;38.02
51178;BME280;37243;49.814;8.652;2022-11-20T07:08:36;99727.13;;;25.01;38.13
51178;BME280;37243;49.814;8.652;2022-11-20T07:11:06;99729.03;;;25.01;38.62
51178;BME280;37243;49.814;8.652;2022-11-20T07:13:37;99729.84;;;25.01;38.04
51178;BME280;37243;49.814;8.652;2022-11-20T07:16:08;99727.13;;;25.01;38.23
51178;BME280;37243;49.814;8.652;2022-11-20T07:18:36;99731.44;;;25.02;38.05
51178;BME280;37243;49.814;8.652;2022-11-20T07:21:06;99727.91;;;25.02;38.62
51178;BME280;37243;49.814;8.652;2022-11-20T07:23:35;99742.75;;;25.01;38.08
51178;BME280;37243;49.814;8.652;2022-11-20T07:26:05;99738.41;;;25.00;38.07
51178;BME280;37243;49.814;8.652;2022-11-20T07:28:33;99738.41;;;25.00;38.18
51178;BME280;37243;49.814;8.652;2022-11-20T07:31:05;99735.34;;;25.01;38.30
51178;BME280;37243;49.814;8.652;2022-11-20T07:33:34;99732.91;;;25.00;38.53
51178;BME280;37243;49.814;8.652;2022-11-20T07:36:03;99741.97;;;25.00;37.85
51178;BME280;37243;49.814;8.652;2022-11-20T07:38:32;99750.19;;;25.00;38.28
51178;BME280;37243;49.814;8.652;2022-11-20T07:41:00;99747.44;;;25.00;38.46
51178;BME280;37243;49.814;8.652;2022-11-20T07:43:28;99747.44;;;25.00;37.78
51178;BME280;37243;49.814;8.652;2022-11-20T07:45:58;99752.94;;;25.00;38.44
51178;BME280;37243;49.814;8.652;2022-11-20T07:48:29;99748.25;;;25.01;37.68
51178;BME280;37243;49.814;8.652;2022-11-20T07:50:57;99747.44;;;25.00;37.69
51178;BME280;37243;49.814;8.652;2022-11-20T07:53:25;99743.88;;;25.00;37.98
51178;BME280;37243;49.814;8.652;2022-11-20T07:55:54;99745.84;;;24.99;38.12
51178;BME280;37243;49.814;8.652;2022-11-20T07:58:22;99758.75;;;24.99;37.79
51178;BME280;37243;49.814;8.652;2022-11-20T08:00:50;99766.19;;;24.98;38.20
51178;BME280;37243;49.814;8.652;2022-11-20T08:03:19;99770.56;;;24.99;38.38
51178;BME280;37243;49.814;8.652;2022-11-20T08:05:50;99779.91;;;24.98;38.24
51178;BME280;37243;49.814;8.652;2022-11-20T08:08:18;99784.59;;;24.98;37.95
51178;BME280;37243;49.814;8.652;2022-11-20T08:10:46;99785.41;;;24.98;38.11
51178;BME280;37243;49.814;8.652;2022-11-20T08:13:15;99776.34;;;24.98;38.16
51178;BME280;37243;49.814;8.652;2022-11-20T08:15:55;99779.09;;;24.98;38.42
51178;BME280;37243;49.814;8.652;2022-11-20T08:18:24;99782.19;;;24.96;37.72
51178;BME280;37243;49.814;8.652;2022-11-20T08:20:55;99793.94;;;24.97;38.35
51178;BME280;37243;49.814;8.652;2022-11-20T08:23:23;99797.50;;;24.97;37.67
51178;BME280;37243;49.814;8.652;2022-11-20T08:25:51;99805.72;;;24.97;38.29
51178;BME280;37243;49.814;8.652;2022-11-20T08:28:23;99794.75;;;24.97;37.62
51178;BME280;37243;49.814;8.652;2022-11-20T08:30:57;99788.47;;;24.97;38.04
51178;BME280;37243;49.814;8.652;2022-11-20T08:33:26;99790.06;;;24.98;37.65
51178;BME280;37243;49.814;8.652;2022-11-20T08:36:00;99786.53;;;24.97;38.11
51178;BME280;37243;49.814;8.652;2022-11-20T08:38:29;99786.88;;;24.96;38.23
51178;BME280;37243;49.814;8.652;2022-11-20T08:40:57;99785.72;;;24.97;37.57
51178;BME280;37243;49.814;8.652;2022-11-20T08:43:38;99798.66;;;24.96;37.98
51178;BME280;37243;49.814;8.652;2022-11-20T08:46:06;99806.88;;;24.96;37.54
51178;BME280;37243;49.814;8.652;2022-11-20T08:48:35;99793.94;;;24.97;38.25
51178;BME280;37243;49.814;8.652;2022-11-20T08:51:06;99791.19;;;24.97;38.25
51178;BME280;37243;49.814;8.652;2022-11-20T08:53:34;99787.69;;;24.96;37.66
51178;BME280;37243;49.814;8.652;2022-11-20T08:56:03;99792.34;;;24.96;37.66
51178;BME280;37243;49.814;8.652;2022-11-20T08:58:31;99791.53;;;24.95;37.84
51178;BME280;37243;49.814;8.652;2022-11-20T09:00:59;99788.81;;;24.95;38.03
51178;BME280;37243;49.814;8.652;2022-11-20T09:03:28;99792.34;;;24.96;37.64
51178;BME280;37243;49.814;8.652;2022-11-20T09:05:57;99788.81;;;24.95;37.63
51178;BME280;37243;49.814;8.652;2022-11-20T09:08:29;99790.75;;;24.95;37.73
51178;BME280;37243;49.814;8.652;2022-11-20T09:10:58;99790.75;;;24.95;37.63
51178;BME280;37243;49.814;8.652;2022-11-20T09:13:28;99785.25;;;24.95;37.88
51178;BME280;37243;49.814;8.652;2022-11-20T09:15:58;99788.81;;;24.95;37.94
51178;BME280;37243;49.814;8.652;2022-11-20T09:18:27;99783.31;;;24.95;37.71
51178;BME280;37243;49.814;8.652;2022-11-20T09:20:57;99788.00;;;24.95;38.06
51178;BME280;37243;49.814;8.652;2022-11-20T09:23:30;99785.59;;;24.93;38.20
51178;BME280;37243;49.814;8.652;2022-11-20T09:26:01;99787.53;;;24.93;38.01
51178;BME280;37243;49.814;8.652;2022-11-20T09:28:30;99794.16;;;24.92;38.36
51178;BME280;37243;49.814;8.652;2022-11-20T09:30:59;99800.44;;;24.92;37.97
51178;BME280;37243;49.814;8.652;2022-11-20T09:33:27;99805.94;;;24.92;38.06
51178;BME280;37243;49.814;8.652;2022-11-20T09:35:56;99807.88;;;24.92;37.99
51178;BME280;37243;49.814;8.652;2022-11-20T09:38:24;99802.72;;;24.90;37.58
51178;BME280;37243;49.814;8.652;2022-11-20T09:40:57;99807.06;;;24.91;37.59
51178;BME280;37243;49.814;8.652;2022-11-20T09:43:33;99799.97;;;24.90;37.99
51178;BME280;37243;49.814;8.652;2022-11-20T09:46:11;99804.31;;;24.91;37.98
51178;BME280;37243;49.814;8.652;2022-11-20T09:48:55;99808.22;;;24.90;37.66
51178;BME280;37243;49.814;8.652;2022-11-20T09:51:36;99806.25;;;24.91;37.48
51178;BME280;37243;49.814;8.652;2022-11-20T09:54:16;99802.72;;;24.90;37.90
51178;BME280;37243;49.814;8.652;2022-11-20T09:56:50;99802.38;;;24.92;37.71
51178;BME280;37243;49.814;8.652;2022-11-20T09:59:34;99800.75;;;24.91;37.65
51178;BME280;37243;49.814;8.652;2022-11-20T10:02:15;99799.97;;;24.90;37.70
51178;BME280;37243;49.814;8.652;2022-11-20T10:04:47;99790.94;;;24.90;37.89
51178;BME280;37243;49.814;8.652;2022-11-20T10:07:22;99793.34;;;24.91;37.86
51178;BME280;37243;49.814;8.652;2022-11-20T10:09:55;99787.03;;;24.91;38.35
51178;BME280;37243;49.814;8.652;2022-11-20T10:12:33;99788.19;;;24.90;38.01
51178;BME280;37243;49.814;8.652;2022-11-20T10:15:15;99798.00;;;24.91;38.04
51178;BME280;37243;49.814;8.652;2022-11-20T10:18:01;99785.44;;;24.90;37.92
51178;BME280;37243;49.814;8.652;2022-11-20T10:20:41;99787.84;;;24.91;38.20
51178;BME280;37243;49.814;8.652;2022-11-20T10:23:25;99791.75;;;24.90;38.19
51178;BME280;37243;49.814;8.652;2022-11-20T10:26:02;99789.00;;;24.90;38.10
51178;BME280;37243;49.814;8.652;2022-11-20T10:28:45;99789.00;;;24.90;38.05
51178;BME280;37243;49.814;8.652;2022-11-20T10:31:27;99783.50;;;24.90;37.96
51178;BME280;37243;49.814;8.652;2022-11-20T10:34:02;99781.56;;;24.91;37.87
51178;BME280;37243;49.814;8.652;2022-11-20T10:36:35;99777.22;;;24.90;37.69
51178;BME280;37243;49.814;8.652;2022-11-20T10:39:07;99776.06;;;24.91;37.88
51178;BME280;37243;49.814;8.652;2022-11-20T10:41:41;99781.91;;;24.89;38.26
51178;BME280;37243;49.814;8.652;2022-11-20T10:44:16;99770.56;;;24.91;37.61
51178;BME280;37243;49.814;8.652;2022-11-20T10:47:11;99777.22;;;24.90;38.06
51178;BME280;37243;49.814;8.652;2022-11-20T10:49:41;99770.13;;;24.89;37.94
51178;BME280;37243;49.814;8.652;2022-11-20T10:52:16;99765.09;;;24.91;37.71
51178;BME280;37243;49.814;8.652;2022-11-20T10:54:59;99758.34;;;24.88;38.04
51178;BME280;37243;49.814;8.652;2022-11-20T10:57:41;99763.97;;;24.92;38.56
51178;BME280;37243;49.814;8.652;2022-11-20T11:00:15;99760.34;;;25.00;38.27
51178;BME280;37243;49.814;8.652;2022-11-20T11:02:47;99757.56;;;25.08;37.75
51178;BME280;37243;49.814;8.652;2022-11-20T11:05:29;99757.16;;;25.18;37.93
51178;BME280;37243;49.814;8.652;2022-11-20T11:08:00;99754.34;;;25.27;37.42
51178;BME280;37243;49.814;8.652;2022-11-20T11:10:34;99747.66;;;25.36;37.10
51178;BME280;37243;49.814;8.652;2022-11-20T11:13:04;99752.56;;;25.52;37.16
51178;BME280;37243;49.814;8.652;2022-11-20T11:15:40;99744.38;;;25.64;36.93
51178;BME280;37243;49.814;8.652;2022-11-20T11:18:10;99735.81;;;25.77;36.79
51178;BME280;37243;49.814;8.652;2022-11-20T11:20:38;99736.34;;;25.91;36.53
51178;BME280;37243;49.814;8.652;2022-11-20T11:23:26;99736.59;;;25.99;36.56
51178;BME280;37243;49.814;8.652;2022-11-20T11:25:57;99733.72;;;26.07;35.95
51178;BME280;37243;49.814;8.652;2022-11-20T11:28:26;99730.09;;;26.15;36.24
51178;BME280;37243;49.814;8.652;2022-11-20T11:30:58;99720.16;;;26.23;35.47
51178;BME280;37243;49.814;8.652;2022-11-20T11:33:27;99719.59;;;26.29;35.67
51178;BME280;37243;49.814;8.652;2022-11-20T11:35:58;99711.56;;;26.36;35.08
51178;BME280;37243;49.814;8.652;2022-11-20T11:38:29;99706.31;;;26.43;35.57
51178;BME280;37243;49.814;8.652;2022-11-20T11:41:00;99707.22;;;26.47;35.57
51178;BME280;37243;49.814;8.652;2022-11-20T11:43:32;99708.16;;;26.52;35.55
51178;BME280;37243;49.814;8.652;2022-11-20T11:46:26;99707.47;;;26.55;35.13
51178;BME280;37243;49.814;8.652;2022-11-20T11:49:00;99704.03;;;26.58;34.97
51178;BME280;37243;49.814;8.652;2022-11-20T11:51:34;99705.28;;;26.60;34.79
51178;BME280;37243;49.814;8.652;2022-11-20T11:54:13;99709.03;;;26.68;35.25
51178;BME280;37243;49.814;8.652;2022-11-20T11:56:43;99710.84;;;26.76;34.94
51178;BME280;37243;49.814;8.652;2022-11-20T11:59:17;99701.09;;;26.78;34.98
51178;BME280;37243;49.814;8.652;2022-11-20T12:01:56;99688.75;;;26.84;34.86
51178;BME280;37243;49.814;8.652;2022-11-20T12:04:39;99692.84;;;26.90;34.87
51178;BME280;37243;49.814;8.652;2022-11-20T12:07:13;99688.59;;;26.93;34.87
51178;BME280;37243;49.814;8.652;2022-11-20T12:09:48;99693.09;;;26.97;34.68
51178;BME280;37243;49.814;8.652;2022-11-20T12:12:24;99683.31;;;27.00;34.42
51178;BME280;37243;49.814;8.652;2022-11-20T12:14:58;99684.13;;;27.00;34.47
51178;BME280;37243;49.814;8.652;2022-11-20T12:17:29;99673.56;;;27.02;34.41
51178;BME280;37243;49.814;8.652;2022-11-20T12:19:57;99685.03;;;27.04;34.75
51178;BME280;37243;49.814;8.652;2022-11-20T12:22:34;99684.25;;;27.04;34.88
51178;BME280;37243;49.814;8.652;2022-11-20T12:25:07;99682.63;;;27.03;34.09
51178;BME280;37243;49.814;8.652;2022-11-20T12:27:44;99682.63;;;27.03;34.54
51178;BME280;37243;49.814;8.652;2022-11-20T12:30:16;99681.50;;;27.04;34.56
51178;BME280;37243;49.814;8.652;2022-11-20T12:33:00;99674.00;;;27.04;34.29
51178;BME280;37243;49.814;8.652;2022-11-20T12:35:44;99671.72;;;27.07;34.04
51178;BME280;37243;49.814;8.652;2022-11-20T12:38:34;99678.00;;;27.07;34.12
51178;BME280;37243;49.814;8.652;2022-11-20T12:41:11;99669.31;;;27.05;34.88
51178;BME280;37243;49.814;8.652;2022-11-20T12:44:09;99661.50;;;27.07;34.36
51178;BME280;37243;49.814;8.652;2022-11-20T12:47:05;99668.63;;;27.08;34.52
51178;BME280;37243;49.814;8.652;2022-11-20T12:49:47;99660.72;;;27.07;34.30
51178;BME280;37243;49.814;8.652;2022-11-20T12:52:30;99670.91;;;27.06;34.16
51178;BME280;37243;49.814;8.652;2022-11-20T12:55:25;99659.91;;;27.06;34.25
51178;BME280;37243;49.814;8.652;2022-11-20T12:58:00;99668.63;;;27.08;34.59
51178;BME280;37243;49.814;8.652;2022-11-20T13:00:31;99669.53;;;27.12;34.47
51178;BME280;37243;49.814;8.652;2022-11-20T13:06:05;99649.09;;;27.13;34.35
51178;BME280;37243;49.814;8.652;2022-11-20T13:08:39;99649.88;;;27.14;34.85
51178;BME280;37243;49.814;8.652;2022-11-20T13:11:14;99651.41;;;27.11;34.58
51178;BME280;37243;49.814;8.652;2022-11-20T13:13:58;99636.50;;;27.12;34.87
51178;BME280;37243;49.814;8.652;2022-11-20T13:16:33;99640.38;;;27.11;34.32
51178;BME280;37243;49.814;8.652;2022-11-20T13:19:05;99643.50;;;27.10;34.68
51178;BME280;37243;49.814;8.652;2022-11-20T13:21:43;99628.94;;;27.09;34.44
51178;BME280;37243;49.814;8.652;2022-11-20T13:24:25;99628.47;;;27.07;34.67
51178;BME280;37243;49.814;8.652;2022-11-20T13:27:17;99622.75;;;27.00;35.11